createdAt,value
2022-09-17T00:01:31.407Z,5.10
2022-09-17T00:04:03.961Z,5.07
2022-09-17T00:06:33.070Z,4.50
2022-09-17T00:09:00.748Z,5.03
2022-09-17T00:11:30.598Z,4.00
2022-09-17T00:14:00.548Z,5.20
2022-09-17T00:16:32.327Z,4.67
2022-09-17T00:19:00.950Z,4.60
2022-09-17T00:21:29.267Z,4.63
2022-09-17T00:23:58.550Z,4.67
2022-09-17T00:26:26.899Z,3.67
2022-09-17T00:28:55.979Z,3.47
2022-09-17T00:31:25.452Z,4.20
2022-09-17T00:33:54.690Z,3.20
2022-09-17T00:36:23.308Z,3.07
2022-09-17T00:38:51.878Z,2.80
2022-09-17T00:41:20.099Z,3.27
2022-09-17T00:43:50.926Z,3.13
2022-09-17T00:46:32.592Z,3.00
2022-09-17T00:49:04.633Z,2.67
2022-09-17T00:51:37.051Z,2.60
2022-09-17T00:54:08.837Z,2.73
2022-09-17T00:56:39.846Z,2.73
2022-09-17T00:59:09.036Z,2.10
2022-09-17T01:01:37.428Z,2.07
2022-09-17T01:04:06.515Z,1.80
2022-09-17T01:06:41.429Z,1.90
2022-09-17T01:09:26.574Z,2.10
2022-09-17T01:12:13.166Z,2.10
2022-09-17T01:14:58.622Z,2.00
2022-09-17T01:17:32.753Z,2.20
2022-09-17T01:20:34.172Z,1.83
2022-09-17T01:23:23.757Z,1.80
2022-09-17T01:26:07.840Z,1.90
2022-09-17T01:28:43.332Z,2.43
2022-09-17T01:31:38.885Z,1.93
2022-09-17T01:34:20.914Z,1.97
2022-09-17T01:37:00.597Z,2.00
2022-09-17T01:39:46.584Z,1.90
2022-09-17T01:42:25.425Z,1.63
2022-09-17T01:45:00.249Z,2.00
2022-09-17T01:47:32.779Z,2.07
2022-09-17T01:50:04.472Z,2.47
2022-09-17T01:52:35.379Z,1.87
2022-09-17T01:55:06.956Z,1.90
2022-09-17T01:57:41.135Z,2.10
2022-09-17T02:00:12.000Z,2.50
2022-09-17T02:02:45.846Z,2.17
2022-09-17T02:05:19.027Z,1.90
2022-09-17T02:07:56.157Z,1.60
2022-09-17T02:10:29.544Z,1.50
2022-09-17T02:13:01.715Z,2.03
2022-09-17T02:15:35.311Z,1.30
2022-09-17T02:18:11.659Z,1.50
2022-09-17T02:20:44.567Z,1.67
2022-09-17T02:23:17.353Z,1.30
2022-09-17T02:25:50.688Z,2.03
2022-09-17T02:28:25.334Z,1.30
2022-09-17T02:30:53.166Z,1.27
2022-09-17T02:33:23.819Z,1.60
2022-09-17T02:35:51.626Z,1.50
2022-09-17T02:38:24.443Z,1.57
2022-09-17T02:40:58.828Z,1.50
2022-09-17T02:43:38.019Z,1.40
2022-09-17T02:46:25.634Z,1.50
2022-09-17T02:49:18.272Z,1.03
2022-09-17T02:51:52.991Z,1.10
2022-09-17T02:54:28.333Z,0.80
2022-09-17T02:57:08.717Z,0.90
2022-09-17T02:59:43.733Z,1.10
2022-09-17T03:02:21.579Z,0.80
2022-09-17T03:04:51.635Z,1.50
2022-09-17T03:07:20.940Z,1.27
2022-09-17T03:09:48.635Z,1.00
2022-09-17T03:12:17.436Z,1.10
2022-09-17T03:14:45.147Z,1.17
2022-09-17T03:17:14.856Z,1.03
2022-09-17T03:19:42.598Z,1.10
2022-09-17T03:22:12.489Z,1.00
2022-09-17T03:24:40.267Z,0.90
2022-09-17T03:27:08.025Z,1.00
2022-09-17T03:29:35.735Z,1.17
2022-09-17T03:32:03.633Z,1.00
2022-09-17T03:34:31.307Z,1.20
2022-09-17T03:36:58.967Z,1.00
2022-09-17T03:39:28.013Z,1.20
2022-09-17T03:41:55.673Z,1.13
2022-09-17T03:44:23.791Z,1.33
2022-09-17T03:46:51.667Z,1.60
2022-09-17T03:49:19.539Z,0.87
2022-09-17T03:51:47.227Z,1.23
2022-09-17T03:54:14.929Z,0.83
2022-09-17T03:56:44.260Z,1.23
2022-09-17T03:59:11.971Z,1.37
2022-09-17T04:01:39.793Z,0.90
2022-09-17T04:04:07.880Z,1.00
2022-09-17T04:06:35.763Z,1.30
2022-09-17T04:09:05.063Z,1.17
2022-09-17T04:11:32.766Z,0.83
2022-09-17T04:14:01.819Z,1.30
2022-09-17T04:16:29.604Z,2.37
2022-09-17T04:18:57.372Z,0.97
2022-09-17T04:21:25.075Z,1.17
2022-09-17T04:23:52.767Z,1.47
2022-09-17T04:26:20.449Z,1.37
2022-09-17T04:28:48.290Z,1.50
2022-09-17T04:31:17.519Z,1.57
2022-09-17T04:33:45.377Z,1.77
2022-09-17T04:36:13.067Z,1.50
2022-09-17T04:38:40.810Z,1.23
2022-09-17T04:41:09.328Z,1.37
2022-09-17T04:43:37.050Z,1.70
2022-09-17T04:46:05.008Z,1.67
2022-09-17T04:48:34.511Z,1.70
2022-09-17T04:51:02.198Z,1.37
2022-09-17T04:53:29.918Z,1.47
2022-09-17T04:55:58.462Z,1.80
2022-09-17T04:58:26.310Z,1.53
2022-09-17T05:00:54.236Z,1.40
2022-09-17T05:03:21.925Z,1.40
2022-09-17T05:05:50.975Z,1.07
2022-09-17T05:08:18.579Z,1.33
2022-09-17T05:10:46.205Z,1.60
2022-09-17T05:13:13.900Z,1.50
2022-09-17T05:15:41.633Z,1.50
2022-09-17T05:18:09.431Z,1.33
2022-09-17T05:20:37.187Z,1.47
2022-09-17T05:23:06.284Z,1.53
2022-09-17T05:25:34.055Z,1.40
2022-09-17T05:28:02.251Z,1.33
2022-09-17T05:30:30.249Z,1.30
2022-09-17T05:33:03.067Z,1.43
2022-09-17T05:35:31.316Z,1.70
2022-09-17T05:38:00.691Z,1.53
2022-09-17T05:40:30.854Z,1.37
2022-09-17T05:43:02.715Z,1.80
2022-09-17T05:45:31.086Z,1.50
2022-09-17T05:48:00.134Z,1.27
2022-09-17T05:50:29.402Z,1.17
2022-09-17T05:52:57.566Z,1.53
2022-09-17T05:55:25.505Z,1.83
2022-09-17T05:57:54.569Z,1.57
2022-09-17T06:00:22.531Z,1.50
2022-09-17T06:02:55.962Z,1.40
2022-09-17T06:05:23.649Z,1.33
2022-09-17T06:07:51.811Z,1.20
2022-09-17T06:10:19.530Z,1.50
2022-09-17T06:12:47.456Z,1.93
2022-09-17T06:15:16.556Z,1.47
2022-09-17T06:17:44.395Z,1.33
2022-09-17T06:20:12.064Z,1.07
2022-09-17T06:22:39.718Z,1.00
2022-09-17T06:25:08.169Z,1.33
2022-09-17T06:27:36.232Z,1.20
2022-09-17T06:30:04.902Z,1.60
2022-09-17T06:32:34.362Z,1.50
2022-09-17T06:35:03.291Z,1.10
2022-09-17T06:37:32.358Z,1.47
2022-09-17T06:40:00.745Z,1.37
2022-09-17T06:42:30.118Z,1.20
2022-09-17T06:45:00.357Z,1.27
2022-09-17T06:47:29.778Z,1.30
2022-09-17T06:49:59.863Z,1.70
2022-09-17T06:52:27.498Z,2.60
2022-09-17T06:54:55.243Z,1.33
2022-09-17T06:57:22.918Z,2.00
2022-09-17T06:59:51.892Z,1.43
2022-09-17T07:02:19.752Z,1.57
2022-09-17T07:04:47.482Z,2.43
2022-09-17T07:07:16.592Z,1.13
2022-09-17T07:09:44.202Z,1.20
2022-09-17T07:12:12.045Z,1.03
2022-09-17T07:14:39.771Z,2.00
2022-09-17T07:17:07.442Z,1.23
2022-09-17T07:19:35.115Z,1.20
2022-09-17T07:22:03.417Z,1.30
2022-09-17T07:24:33.122Z,1.20
2022-09-17T07:27:01.638Z,1.37
2022-09-17T07:29:29.335Z,1.33
2022-09-17T07:31:58.358Z,1.30
2022-09-17T07:34:28.058Z,1.00
2022-09-17T07:36:56.028Z,1.77
2022-09-17T07:39:23.743Z,1.30
2022-09-17T07:41:52.767Z,1.67
2022-09-17T07:44:22.446Z,1.30
2022-09-17T07:46:50.320Z,2.03
2022-09-17T07:49:18.074Z,1.23
2022-09-17T07:51:45.798Z,1.03
2022-09-17T07:54:14.029Z,1.47
2022-09-17T07:56:41.655Z,1.30
2022-09-17T07:59:11.810Z,0.90
2022-09-17T08:01:39.621Z,1.00
2022-09-17T08:04:08.168Z,0.80
2022-09-17T08:06:40.244Z,1.20
2022-09-17T08:09:09.897Z,1.07
2022-09-17T08:11:54.977Z,1.20
2022-09-17T08:14:29.117Z,1.10
2022-09-17T08:16:57.096Z,0.70
2022-09-17T08:19:25.462Z,1.27
2022-09-17T08:21:53.165Z,1.03
2022-09-17T08:24:20.886Z,1.43
2022-09-17T08:26:48.841Z,1.20
2022-09-17T08:29:16.665Z,0.80
2022-09-17T08:31:45.802Z,0.93
2022-09-17T08:34:14.390Z,1.40
2022-09-17T08:36:42.101Z,0.90
2022-09-17T08:39:12.033Z,1.37
2022-09-17T08:41:51.822Z,1.50
2022-09-17T08:44:25.993Z,2.10
2022-09-17T08:47:00.486Z,0.97
2022-09-17T08:49:35.173Z,0.90
2022-09-17T08:52:17.355Z,1.00
2022-09-17T08:54:55.455Z,1.00
2022-09-17T08:57:31.530Z,0.67
2022-09-17T09:00:04.640Z,0.83
2022-09-17T09:02:57.669Z,1.00
2022-09-17T09:05:33.199Z,1.10
2022-09-17T09:08:06.719Z,1.20
2022-09-17T09:10:44.310Z,0.90
2022-09-17T09:13:16.158Z,1.00
2022-09-17T09:15:48.275Z,1.53
2022-09-17T09:18:20.529Z,1.20
2022-09-17T09:20:53.532Z,1.07
2022-09-17T09:23:28.217Z,1.20
2022-09-17T09:26:04.547Z,1.10
2022-09-17T09:28:57.152Z,1.40
2022-09-17T09:31:49.508Z,1.90
2022-09-17T09:34:19.018Z,1.03
2022-09-17T09:36:47.357Z,1.20
2022-09-17T09:39:20.188Z,1.03
2022-09-17T09:41:54.222Z,1.37
2022-09-17T09:44:21.932Z,1.13
2022-09-17T09:47:12.388Z,1.00
2022-09-17T09:49:57.699Z,0.73
2022-09-17T09:52:41.924Z,1.20
2022-09-17T09:55:30.811Z,1.13
2022-09-17T09:58:10.003Z,2.17
2022-09-17T10:00:40.208Z,1.67
2022-09-17T10:03:16.166Z,1.53
2022-09-17T10:05:55.625Z,1.60
2022-09-17T10:08:24.362Z,1.50
2022-09-17T10:11:00.994Z,1.50
2022-09-17T10:13:31.286Z,1.37
2022-09-17T10:16:17.792Z,1.80
2022-09-17T10:18:46.219Z,2.03
2022-09-17T10:21:23.047Z,1.90
2022-09-17T10:23:51.719Z,2.23
2022-09-17T10:26:28.313Z,1.30
2022-09-17T10:28:57.685Z,1.43
2022-09-17T10:31:25.838Z,2.30
2022-09-17T10:33:58.488Z,2.37
2022-09-17T10:36:42.949Z,2.70
2022-09-17T10:39:34.129Z,2.27
2022-09-17T10:42:03.729Z,1.70
2022-09-17T10:44:32.828Z,1.70
2022-09-17T10:47:07.194Z,1.23
2022-09-17T10:49:42.511Z,2.17
2022-09-17T10:52:22.940Z,2.07
2022-09-17T10:55:13.105Z,2.00
2022-09-17T10:58:03.402Z,2.10
2022-09-17T11:00:42.680Z,1.80
2022-09-17T11:03:39.119Z,2.33
2022-09-17T11:06:41.498Z,1.73
2022-09-17T11:09:22.663Z,2.10
2022-09-17T11:12:02.968Z,0.97
2022-09-17T11:14:47.833Z,1.17
2022-09-17T11:17:32.345Z,1.37
2022-09-17T11:20:05.286Z,1.17
2022-09-17T11:22:48.740Z,1.20
2022-09-17T11:25:36.879Z,0.90
2022-09-17T11:28:17.340Z,0.73
2022-09-17T11:30:57.057Z,1.07
2022-09-17T11:33:52.852Z,1.10
2022-09-17T11:36:25.767Z,1.30
2022-09-17T11:38:56.746Z,1.17
2022-09-17T11:41:31.967Z,1.53
2022-09-17T11:44:09.567Z,1.30
2022-09-17T11:46:44.228Z,1.40
2022-09-17T11:49:23.239Z,1.13
2022-09-17T11:51:57.215Z,1.00
2022-09-17T11:54:29.336Z,1.30
2022-09-17T11:57:09.829Z,0.90
2022-09-17T11:59:44.565Z,1.20
2022-09-17T12:02:21.890Z,1.17
2022-09-17T12:04:59.588Z,1.70
2022-09-17T12:07:35.749Z,0.87
2022-09-17T12:10:21.927Z,1.73
2022-09-17T12:12:58.098Z,0.97
2022-09-17T12:15:29.084Z,1.57
2022-09-17T12:18:34.587Z,1.03
2022-09-17T12:21:06.040Z,0.90
2022-09-17T12:23:40.125Z,0.63
2022-09-17T12:26:21.862Z,1.20
2022-09-17T12:29:00.394Z,1.00
2022-09-17T12:31:38.269Z,1.27
2022-09-17T12:34:24.351Z,0.97
2022-09-17T12:36:58.585Z,1.00
2022-09-17T12:39:56.903Z,1.57
2022-09-17T12:42:37.511Z,1.13
2022-09-17T12:45:32.840Z,2.13
2022-09-17T12:48:26.111Z,1.50
2022-09-17T12:51:02.957Z,2.33
2022-09-17T12:53:36.894Z,1.30
2022-09-17T12:56:14.192Z,1.73
2022-09-17T12:58:55.787Z,1.37
2022-09-17T13:01:33.149Z,1.33
2022-09-17T13:04:15.704Z,2.10
2022-09-17T13:07:16.205Z,1.53
2022-09-17T13:10:01.072Z,2.00
2022-09-17T13:12:45.399Z,1.60
2022-09-17T13:15:48.125Z,1.60
2022-09-17T13:18:29.692Z,1.83
2022-09-17T13:21:05.467Z,1.83
2022-09-17T13:23:36.993Z,2.13
2022-09-17T13:26:06.773Z,2.20
2022-09-17T13:28:43.267Z,2.30
2022-09-17T13:31:14.516Z,2.30
2022-09-17T13:33:58.359Z,2.10
2022-09-17T13:36:48.518Z,1.73
2022-09-17T13:39:38.570Z,2.43
2022-09-17T13:42:10.798Z,2.40
2022-09-17T13:44:42.402Z,2.37
2022-09-17T13:47:29.440Z,2.90
2022-09-17T13:50:02.452Z,2.30
2022-09-17T13:52:42.035Z,2.23
2022-09-17T13:55:30.592Z,2.37
2022-09-17T13:57:58.978Z,2.40
2022-09-17T14:00:53.108Z,1.90
2022-09-17T14:03:56.853Z,2.00
2022-09-17T14:07:01.321Z,1.40
2022-09-17T14:09:39.301Z,1.70
2022-09-17T14:12:40.508Z,1.40
2022-09-17T14:15:36.038Z,0.90
2022-09-17T14:18:50.906Z,1.60
2022-09-17T14:21:26.902Z,0.83
2022-09-17T14:23:57.980Z,1.07
2022-09-17T14:26:44.689Z,0.50
2022-09-17T14:29:30.108Z,1.03
2022-09-17T14:31:59.948Z,0.40
2022-09-17T14:34:28.453Z,0.77
2022-09-17T14:36:57.803Z,1.10
2022-09-17T14:39:30.900Z,1.33
2022-09-17T14:42:01.690Z,1.13
2022-09-17T14:44:34.577Z,1.10
2022-09-17T14:47:04.677Z,1.10
2022-09-17T14:49:35.639Z,0.83
2022-09-17T14:52:19.176Z,1.30
2022-09-17T14:54:46.852Z,0.90
2022-09-17T14:57:27.941Z,1.20
2022-09-17T14:59:59.591Z,1.90
2022-09-17T15:02:35.155Z,1.07
2022-09-17T15:05:04.165Z,0.90
2022-09-17T15:07:31.886Z,0.80
2022-09-17T15:10:13.624Z,0.67
2022-09-17T15:12:45.010Z,0.93
2022-09-17T15:15:20.187Z,0.50
2022-09-17T15:17:49.714Z,0.90
2022-09-17T15:20:20.960Z,0.60
2022-09-17T15:22:56.796Z,0.40
2022-09-17T15:25:30.140Z,0.50
2022-09-17T15:28:05.242Z,0.50
2022-09-17T15:30:33.220Z,0.70
2022-09-17T15:33:01.977Z,0.60
2022-09-17T15:35:31.811Z,0.30
2022-09-17T15:40:50.476Z,0.57
2022-09-17T15:43:26.517Z,0.80
2022-09-17T15:45:55.459Z,0.60
2022-09-17T15:48:37.414Z,0.70
2022-09-17T15:51:07.894Z,1.10
2022-09-17T15:53:36.814Z,0.63
2022-09-17T15:56:08.545Z,1.07
2022-09-17T15:58:53.949Z,1.07
2022-09-17T16:01:51.869Z,1.07
2022-09-17T16:04:22.510Z,1.00
2022-09-17T16:07:18.551Z,0.70
2022-09-17T16:09:49.011Z,0.83
2022-09-17T16:12:19.670Z,0.50
2022-09-17T16:14:51.239Z,0.43
2022-09-17T16:17:28.031Z,0.60
2022-09-17T16:19:56.737Z,1.80
2022-09-17T16:22:29.504Z,0.90
2022-09-17T16:24:57.300Z,1.03
2022-09-17T16:27:30.021Z,1.07
2022-09-17T16:30:05.588Z,1.20
2022-09-17T16:32:33.259Z,0.90
2022-09-17T16:35:01.033Z,0.97
2022-09-17T16:37:28.705Z,0.67
2022-09-17T16:39:56.419Z,0.80
2022-09-17T16:42:24.382Z,1.10
2022-09-17T16:44:52.057Z,0.73
2022-09-17T16:47:21.066Z,0.83
2022-09-17T16:49:48.780Z,0.60
2022-09-17T16:52:16.402Z,0.60
2022-09-17T16:54:44.226Z,0.60
2022-09-17T16:57:13.938Z,0.50
2022-09-17T16:59:41.626Z,0.73
2022-09-17T17:02:10.417Z,0.50
2022-09-17T17:04:39.521Z,0.90
2022-09-17T17:07:07.212Z,0.50
2022-09-17T17:09:35.096Z,0.70
2022-09-17T17:12:03.168Z,0.97
2022-09-17T17:14:32.043Z,1.13
2022-09-17T17:16:59.839Z,0.87
2022-09-17T17:19:27.498Z,0.47
2022-09-17T17:21:56.524Z,0.73
2022-09-17T17:24:24.318Z,1.20
2022-09-17T17:26:52.021Z,0.83
2022-09-17T17:29:19.717Z,0.80
2022-09-17T17:31:49.536Z,0.53
2022-09-17T17:34:17.691Z,1.00
2022-09-17T17:36:45.436Z,0.83
2022-09-17T17:39:14.427Z,0.60
2022-09-17T17:41:42.159Z,0.50
2022-09-17T17:44:12.498Z,0.73
2022-09-17T17:46:40.650Z,0.50
2022-09-17T17:49:09.069Z,0.70
2022-09-17T17:51:37.038Z,0.43
2022-09-17T17:54:05.100Z,1.23
2022-09-17T17:56:34.142Z,0.90
2022-09-17T17:59:01.940Z,1.03
2022-09-17T18:01:31.440Z,0.83
2022-09-17T18:04:00.371Z,0.90
2022-09-17T18:06:28.956Z,1.00
2022-09-17T18:08:56.729Z,1.60
2022-09-17T18:11:24.914Z,1.10
2022-09-17T18:13:55.064Z,1.07
2022-09-17T18:16:24.130Z,1.00
2022-09-17T18:18:51.885Z,1.03
2022-09-17T18:21:22.343Z,1.47
2022-09-17T18:23:51.011Z,0.80
2022-09-17T18:26:20.227Z,1.00
2022-09-17T18:28:48.695Z,1.00
2022-09-17T18:31:22.736Z,1.53
2022-09-17T18:33:51.633Z,1.00
2022-09-17T18:36:19.257Z,0.80
2022-09-17T18:38:46.896Z,0.93
2022-09-17T18:41:14.624Z,0.80
2022-09-17T18:43:42.599Z,0.90
2022-09-17T18:46:10.713Z,0.60
2022-09-17T18:48:39.752Z,0.63
2022-09-17T18:51:09.396Z,1.00
2022-09-17T18:53:38.932Z,1.00
2022-09-17T18:56:12.906Z,1.20
2022-09-17T18:58:41.639Z,0.97
2022-09-17T19:01:09.708Z,1.03
2022-09-17T19:03:38.814Z,0.67
2022-09-17T19:06:08.901Z,0.97
2022-09-17T19:08:36.659Z,1.10
2022-09-17T19:11:05.258Z,0.60
2022-09-17T19:13:35.438Z,1.00
2022-09-17T19:16:05.621Z,1.20
2022-09-17T19:18:34.040Z,1.13
2022-09-17T19:21:04.034Z,1.23
2022-09-17T19:23:32.470Z,1.03
2022-09-17T19:26:07.099Z,0.77
2022-09-17T19:28:36.390Z,0.93
2022-09-17T19:31:05.598Z,1.23
2022-09-17T19:33:33.463Z,0.90
2022-09-17T19:36:07.011Z,1.27
2022-09-17T19:38:35.278Z,1.03
2022-09-17T19:41:07.299Z,1.30
2022-09-17T19:43:35.101Z,1.87
2022-09-17T19:46:03.229Z,1.43
2022-09-17T19:48:31.514Z,1.60
2022-09-17T19:50:59.568Z,1.03
2022-09-17T19:53:28.792Z,1.90
2022-09-17T19:55:56.761Z,1.47
2022-09-17T19:58:24.435Z,1.20
2022-09-17T20:00:56.145Z,1.30
2022-09-17T20:03:25.106Z,1.10
2022-09-17T20:05:59.910Z,0.97
2022-09-17T20:08:29.564Z,1.60
2022-09-17T20:10:57.580Z,1.00
2022-09-17T20:13:26.245Z,1.37
2022-09-17T20:15:53.947Z,1.23
2022-09-17T20:18:23.650Z,0.70
2022-09-17T20:20:53.496Z,0.90
2022-09-17T20:23:21.176Z,1.13
2022-09-17T20:25:53.795Z,0.93
2022-09-17T20:28:21.540Z,2.07
2022-09-17T20:30:49.251Z,1.33
2022-09-17T20:33:19.934Z,1.70
2022-09-17T20:35:50.015Z,0.97
2022-09-17T20:41:08.686Z,1.37
2022-09-17T20:43:37.924Z,1.23
2022-09-17T20:46:06.906Z,1.10
2022-09-17T20:48:35.777Z,1.27
2022-09-17T20:51:07.244Z,0.67
2022-09-17T20:53:37.193Z,1.63
2022-09-17T20:56:07.844Z,1.13
2022-09-17T20:58:39.498Z,1.63
2022-09-17T21:01:08.926Z,1.30
2022-09-17T21:03:37.586Z,1.37
2022-09-17T21:06:05.720Z,1.47
2022-09-17T21:08:33.490Z,1.17
2022-09-17T21:11:06.026Z,1.43
2022-09-17T21:13:33.731Z,1.23
2022-09-17T21:16:07.815Z,0.80
2022-09-17T21:18:39.570Z,1.00
2022-09-17T21:21:08.790Z,0.90
2022-09-17T21:23:37.962Z,0.60
2022-09-17T21:26:09.326Z,0.50
2022-09-17T21:28:37.477Z,0.60
2022-09-17T21:31:06.682Z,0.60
2022-09-17T21:33:34.683Z,0.60
2022-09-17T21:36:07.391Z,0.70
2022-09-17T21:38:35.285Z,0.73
2022-09-17T21:41:05.869Z,0.70
2022-09-17T21:43:36.211Z,0.80
2022-09-17T21:46:07.825Z,0.37
2022-09-17T21:48:37.087Z,0.50
2022-09-17T21:51:06.991Z,0.40
2022-09-17T21:53:35.763Z,0.40
2022-09-17T21:56:05.691Z,0.47
2022-09-17T21:58:35.228Z,0.40
2022-09-17T22:01:08.501Z,0.43
2022-09-17T22:03:36.934Z,0.40
2022-09-17T22:06:05.982Z,0.30
2022-09-17T22:08:34.432Z,0.30
2022-09-17T22:11:08.522Z,0.50
2022-09-17T22:13:38.135Z,0.70
2022-09-17T22:16:08.072Z,0.40
2022-09-17T22:18:37.741Z,0.50
2022-09-17T22:21:13.911Z,0.60
2022-09-17T22:23:41.589Z,0.50
2022-09-17T22:26:11.857Z,0.53
2022-09-17T22:28:40.940Z,0.30
2022-09-17T22:31:19.451Z,0.77
2022-09-17T22:33:51.318Z,0.50
2022-09-17T22:36:20.462Z,0.30
2022-09-17T22:38:50.756Z,0.30
2022-09-17T22:41:19.719Z,0.47
2022-09-17T22:43:48.866Z,0.40
2022-09-17T22:46:19.729Z,0.30
2022-09-17T22:48:48.181Z,0.30
2022-09-17T22:51:16.168Z,0.50
2022-09-17T22:53:44.500Z,0.50
2022-09-17T22:56:23.208Z,0.40
2022-09-17T22:58:52.841Z,0.30
2022-09-17T23:01:23.370Z,0.60
2022-09-17T23:03:53.393Z,0.53
2022-09-17T23:06:24.833Z,0.50
2022-09-17T23:08:52.558Z,0.70
2022-09-17T23:11:22.586Z,0.97
2022-09-17T23:13:52.519Z,0.50
2022-09-17T23:16:20.798Z,0.83
2022-09-17T23:18:48.587Z,0.50
2022-09-17T23:21:18.916Z,0.73
2022-09-17T23:23:48.293Z,0.60
2022-09-17T23:26:18.571Z,0.70
2022-09-17T23:28:46.403Z,0.60
2022-09-17T23:31:19.189Z,1.00
2022-09-17T23:33:47.530Z,1.13
2022-09-17T23:36:17.229Z,0.63
2022-09-17T23:38:46.365Z,1.07
2022-09-17T23:41:17.005Z,0.60
2022-09-17T23:43:47.667Z,0.60
2022-09-17T23:46:17.244Z,1.40
2022-09-17T23:48:45.541Z,0.60
2022-09-17T23:51:13.513Z,0.60
2022-09-17T23:53:41.412Z,0.60
2022-09-17T23:56:13.251Z,0.77
2022-09-17T23:58:41.234Z,0.50
